Time;durP1;ratioP1;P1;durP2;ratioP2;P2;SDS_P1;SDS_P2;PMS_P1;PMS_P2;Temp;Humidity;BMP_temperature;BMP_pressure;BME280_temperature;BME280_humidity;BME280_pressure;Samples;Min_cycle;Max_cycle;Signal;HPM_P1;HPM_P2
2021/12/02 00:01:35;;;;;;;5.82;1.40;;;;;;;;;;4838633;29;20054;-67
2021/12/02 00:04:03;;;;;;;2.60;1.23;;;;;;;;;;4837483;29;20061;-66
2021/12/02 00:06:29;;;;;;;1.65;1.10;;;;;;;;;;4838968;29;20050;-66
2021/12/02 00:08:56;;;;;;;1.33;1.10;;;;;;;;;;4852733;29;20053;-64
2021/12/02 00:11:22;;;;;;;1.95;1.00;;;;;;;;;;4839163;29;20146;-65
2021/12/02 00:21:24;;;;;;;1.10;0.85;;;;;;;;;;4840254;29;20085;-68
2021/12/02 00:24:07;;;;;;;2.40;1.00;;;;;;;;;;4841333;29;20046;-66
2021/12/02 00:26:37;;;;;;;1.35;1.02;;;;;;;;;;4839306;29;20148;-65
2021/12/02 00:29:06;;;;;;;1.10;0.90;;;;;;;;;;4840020;29;20053;-65
2021/12/02 00:31:36;;;;;;;2.20;1.05;;;;;;;;;;4830674;29;20050;-68
2021/12/02 00:34:08;;;;;;;1.92;1.02;;;;;;;;;;4839807;29;20050;-65
2021/12/02 00:36:37;;;;;;;1.35;1.17;;;;;;;;;;4840479;29;20053;-65
2021/12/02 00:39:14;;;;;;;1.98;0.88;;;;;;;;;;4838539;29;20420;-65
2021/12/02 00:41:41;;;;;;;1.50;1.00;;;;;;;;;;4836928;29;20536;-64
2021/12/02 00:44:08;;;;;;;1.35;1.10;;;;;;;;;;4835843;29;20049;-65
2021/12/02 00:46:35;;;;;;;1.08;0.90;;;;;;;;;;4823655;29;20054;-64
2021/12/02 00:49:06;;;;;;;1.48;0.95;;;;;;;;;;4840049;29;20058;-64
2021/12/02 00:51:34;;;;;;;2.72;1.00;;;;;;;;;;4841011;29;20053;-66
2021/12/02 00:54:04;;;;;;;1.50;0.90;;;;;;;;;;4837264;29;20049;-65
2021/12/02 00:56:30;;;;;;;1.73;0.90;;;;;;;;;;4837079;29;20098;-65
2021/12/02 00:58:57;;;;;;;1.98;0.80;;;;;;;;;;4840409;29;20161;-64
2021/12/02 01:01:26;;;;;;;1.38;0.93;;;;;;;;;;4833737;29;20069;-65
2021/12/02 01:03:58;;;;;;;0.82;0.77;;;;;;;;;;4836697;29;20060;-65
2021/12/02 01:06:25;;;;;;;0.88;0.70;;;;;;;;;;4841378;29;20110;-63
2021/12/02 01:08:52;;;;;;;1.10;0.90;;;;;;;;;;4839676;29;20049;-65
2021/12/02 01:11:19;;;;;;;1.23;0.82;;;;;;;;;;4837176;29;20057;-64
2021/12/02 01:13:46;;;;;;;1.40;1.00;;;;;;;;;;4839549;29;20201;-65
2021/12/02 01:16:13;;;;;;;1.33;0.90;;;;;;;;;;4837998;29;20536;-63
2021/12/02 01:18:40;;;;;;;1.25;1.00;;;;;;;;;;4842418;29;20042;-67
2021/12/02 01:21:12;;;;;;;2.33;0.90;;;;;;;;;;4829909;29;20140;-64
2021/12/02 01:23:39;;;;;;;0.73;0.63;;;;;;;;;;4823768;29;20133;-66
2021/12/02 01:26:07;;;;;;;0.77;0.60;;;;;;;;;;4840296;29;20133;-66
2021/12/02 01:28:35;;;;;;;0.75;0.70;;;;;;;;;;4839445;29;20144;-66
2021/12/02 01:31:01;;;;;;;1.02;0.75;;;;;;;;;;4853782;29;20058;-63
2021/12/02 01:33:28;;;;;;;1.08;0.68;;;;;;;;;;4835557;29;20086;-65
2021/12/02 01:35:58;;;;;;;1.33;0.80;;;;;;;;;;4853571;29;20181;-64
2021/12/02 01:38:26;;;;;;;0.60;0.60;;;;;;;;;;4838883;29;20056;-66
2021/12/02 01:40:54;;;;;;;0.65;0.65;;;;;;;;;;4838174;29;20083;-70
2021/12/02 01:43:41;;;;;;;0.55;0.55;;;;;;;;;;4833149;29;20049;-64
2021/12/02 01:46:07;;;;;;;0.65;0.65;;;;;;;;;;4834009;29;20055;-66
2021/12/02 01:48:35;;;;;;;0.50;0.43;;;;;;;;;;4837246;29;20053;-66
2021/12/02 01:51:05;;;;;;;1.17;0.75;;;;;;;;;;4840646;29;20061;-66
2021/12/02 01:53:38;;;;;;;1.25;0.70;;;;;;;;;;4840257;29;20058;-63
2021/12/02 01:56:13;;;;;;;1.13;0.73;;;;;;;;;;4840651;29;20061;-64
2021/12/02 01:58:49;;;;;;;0.98;0.77;;;;;;;;;;4839709;29;20476;-64
2021/12/02 02:01:22;;;;;;;2.78;0.77;;;;;;;;;;4838240;29;20130;-66
2021/12/02 02:03:50;;;;;;;0.93;0.73;;;;;;;;;;4840693;29;20054;-64
2021/12/02 02:06:49;;;;;;;1.45;0.80;;;;;;;;;;4833696;29;20527;-66
2021/12/02 02:09:15;;;;;;;1.45;0.50;;;;;;;;;;4830770;29;20110;-64
2021/12/02 02:11:42;;;;;;;0.73;0.68;;;;;;;;;;4837912;29;20066;-68
2021/12/02 02:14:09;;;;;;;3.75;0.95;;;;;;;;;;4836581;29;20964;-65
2021/12/02 02:16:37;;;;;;;1.73;0.90;;;;;;;;;;4832581;29;20173;-65
2021/12/02 02:19:05;;;;;;;1.92;0.98;;;;;;;;;;4824505;29;20069;-64
2021/12/02 02:21:35;;;;;;;1.45;0.80;;;;;;;;;;4837595;29;20049;-65
2021/12/02 02:24:03;;;;;;;1.95;0.88;;;;;;;;;;4839524;29;20049;-66
2021/12/02 02:26:35;;;;;;;2.05;0.90;;;;;;;;;;4822875;29;20062;-65
2021/12/02 02:29:04;;;;;;;1.95;1.00;;;;;;;;;;4838500;29;20086;-63
2021/12/02 02:31:33;;;;;;;4.47;0.70;;;;;;;;;;4835628;29;20105;-65
2021/12/02 02:33:59;;;;;;;1.10;0.90;;;;;;;;;;4837168;29;20061;-65
2021/12/02 02:36:30;;;;;;;3.22;0.80;;;;;;;;;;4841121;29;20412;-67
2021/12/02 02:38:57;;;;;;;0.68;0.63;;;;;;;;;;4836824;29;20098;-65
2021/12/02 02:41:30;;;;;;;0.90;0.70;;;;;;;;;;4824376;29;20045;-66
2021/12/02 02:43:59;;;;;;;1.38;0.90;;;;;;;;;;4835736;29;20054;-64
2021/12/02 02:46:33;;;;;;;1.45;0.90;;;;;;;;;;4836197;29;20575;-65
2021/12/02 02:49:02;;;;;;;1.30;0.70;;;;;;;;;;4837187;29;20046;-64
2021/12/02 02:51:30;;;;;;;1.00;0.80;;;;;;;;;;4837551;29;20049;-66
2021/12/02 02:54:04;;;;;;;1.25;0.60;;;;;;;;;;4838983;29;20095;-65
2021/12/02 02:56:33;;;;;;;1.70;0.75;;;;;;;;;;4837589;29;20106;-63
2021/12/02 03:07:06;;;;;;;0.98;0.80;;;;;;;;;;4835473;29;20137;-67
2021/12/02 03:17:12;;;;;;;1.13;0.70;;;;;;;;;;4829462;29;20125;-65
2021/12/02 03:19:46;;;;;;;1.85;0.70;;;;;;;;;;4834497;29;20080;-65
2021/12/02 03:22:14;;;;;;;1.00;0.90;;;;;;;;;;4835501;29;20403;-66
2021/12/02 03:24:41;;;;;;;1.75;1.00;;;;;;;;;;4838246;29;20118;-66
2021/12/02 03:27:07;;;;;;;1.75;0.90;;;;;;;;;;4836596;29;20053;-66
2021/12/02 03:29:34;;;;;;;1.10;0.70;;;;;;;;;;4836002;29;20058;-64
2021/12/02 03:32:00;;;;;;;3.40;0.90;;;;;;;;;;4835989;29;20397;-65
2021/12/02 03:34:26;;;;;;;0.70;0.60;;;;;;;;;;4837615;29;20057;-65
2021/12/02 03:36:53;;;;;;;0.70;0.70;;;;;;;;;;4839050;29;20042;-65
2021/12/02 03:39:19;;;;;;;0.85;0.77;;;;;;;;;;4838643;29;20136;-66
2021/12/02 03:41:46;;;;;;;0.65;0.55;;;;;;;;;;4836010;29;20493;-66
2021/12/02 03:44:12;;;;;;;0.73;0.70;;;;;;;;;;4836358;29;20081;-67
2021/12/02 03:46:40;;;;;;;0.60;0.50;;;;;;;;;;4824487;29;20054;-66
2021/12/02 03:49:07;;;;;;;1.50;0.70;;;;;;;;;;4837986;29;20053;-65
2021/12/02 03:51:33;;;;;;;0.60;0.60;;;;;;;;;;4840468;29;20077;-66
2021/12/02 03:54:00;;;;;;;0.70;0.70;;;;;;;;;;4838581;29;20069;-65
2021/12/02 03:56:26;;;;;;;0.95;0.73;;;;;;;;;;4831057;29;20408;-67
2021/12/02 03:58:53;;;;;;;0.70;0.70;;;;;;;;;;4837477;29;20465;-66
2021/12/02 04:01:21;;;;;;;10.73;1.00;;;;;;;;;;4834505;29;20069;-64
2021/12/02 04:03:48;;;;;;;1.92;0.70;;;;;;;;;;4807404;29;20194;-65
2021/12/02 04:06:16;;;;;;;1.50;0.77;;;;;;;;;;4836550;29;20065;-65
2021/12/02 04:08:49;;;;;;;2.03;0.80;;;;;;;;;;4836848;29;20054;-65
2021/12/02 04:16:50;;;;;;;1.25;0.80;;;;;;;;;;4838279;29;20113;-69
2021/12/02 04:19:16;;;;;;;0.82;0.80;;;;;;;;;;4837393;29;20122;-66
2021/12/02 04:21:43;;;;;;;1.00;0.73;;;;;;;;;;4833375;29;20058;-63
2021/12/02 04:24:09;;;;;;;1.08;0.85;;;;;;;;;;4832124;29;20053;-65
2021/12/02 04:26:36;;;;;;;0.75;0.60;;;;;;;;;;4835963;29;20065;-68
2021/12/02 04:29:02;;;;;;;1.38;0.75;;;;;;;;;;4835004;29;20108;-67
2021/12/02 04:31:29;;;;;;;0.77;0.70;;;;;;;;;;4838060;29;20073;-65
2021/12/02 04:33:55;;;;;;;2.22;0.90;;;;;;;;;;4820938;29;20050;-65
2021/12/02 04:36:21;;;;;;;0.77;0.63;;;;;;;;;;4837521;29;20389;-63
2021/12/02 04:38:47;;;;;;;0.93;0.68;;;;;;;;;;4821504;29;20057;-68
2021/12/02 04:41:16;;;;;;;2.40;0.80;;;;;;;;;;4838316;29;20054;-66
2021/12/02 04:43:42;;;;;;;0.70;0.55;;;;;;;;;;4829194;29;20050;-66
2021/12/02 04:46:08;;;;;;;1.63;0.90;;;;;;;;;;4837402;29;20065;-65
2021/12/02 04:48:34;;;;;;;1.55;0.88;;;;;;;;;;4838258;29;20058;-65
2021/12/02 04:51:01;;;;;;;2.17;0.80;;;;;;;;;;4834946;29;20054;-64
2021/12/02 04:53:27;;;;;;;1.73;1.02;;;;;;;;;;4836483;29;20087;-64
2021/12/02 04:55:53;;;;;;;1.30;0.73;;;;;;;;;;4836023;29;20042;-65
2021/12/02 04:58:19;;;;;;;2.28;0.82;;;;;;;;;;4836979;29;20050;-64
2021/12/02 05:00:46;;;;;;;1.20;0.95;;;;;;;;;;4838065;29;20093;-64
2021/12/02 05:03:12;;;;;;;1.38;1.02;;;;;;;;;;4832855;29;20054;-66
2021/12/02 05:05:38;;;;;;;4.47;1.10;;;;;;;;;;4835780;29;20053;-68
2021/12/02 05:08:05;;;;;;;1.65;0.90;;;;;;;;;;4839026;29;20178;-68
2021/12/02 05:10:31;;;;;;;5.55;1.20;;;;;;;;;;4837500;29;20116;-65
2021/12/02 05:12:57;;;;;;;5.22;1.58;;;;;;;;;;4853777;29;20058;-65
2021/12/02 05:15:24;;;;;;;2.30;1.20;;;;;;;;;;4839096;29;20137;-65
2021/12/02 05:17:50;;;;;;;2.55;1.00;;;;;;;;;;4841084;29;20054;-65
2021/12/02 05:20:17;;;;;;;2.60;1.45;;;;;;;;;;4836652;29;20061;-65
2021/12/02 05:22:43;;;;;;;2.65;1.20;;;;;;;;;;4838944;29;20050;-65
2021/12/02 05:25:09;;;;;;;5.18;1.30;;;;;;;;;;4837878;29;20148;-65
2021/12/02 05:27:36;;;;;;;4.15;1.48;;;;;;;;;;4837806;29;20118;-67
2021/12/02 05:30:03;;;;;;;2.45;1.30;;;;;;;;;;4836809;29;20068;-66
2021/12/02 05:32:32;;;;;;;4.00;1.38;;;;;;;;;;4840463;29;20060;-65
2021/12/02 05:34:59;;;;;;;2.95;1.65;;;;;;;;;;4838877;29;20062;-65
2021/12/02 05:37:25;;;;;;;4.05;1.20;;;;;;;;;;4839115;29;20408;-64
2021/12/02 05:39:51;;;;;;;6.38;1.50;;;;;;;;;;4841012;29;20058;-64
2021/12/02 05:42:18;;;;;;;4.82;1.60;;;;;;;;;;4835277;29;20365;-65
2021/12/02 05:44:45;;;;;;;12.10;1.67;;;;;;;;;;4838830;29;20073;-65
2021/12/02 05:47:12;;;;;;;2.20;1.40;;;;;;;;;;4838812;29;20114;-65
2021/12/02 05:49:38;;;;;;;5.80;1.73;;;;;;;;;;4838687;29;20050;-65
2021/12/02 05:52:05;;;;;;;3.45;1.60;;;;;;;;;;4839791;29;20137;-69
2021/12/02 05:54:32;;;;;;;4.13;1.63;;;;;;;;;;4840405;29;20103;-68
2021/12/02 05:56:58;;;;;;;2.50;1.40;;;;;;;;;;4838767;29;20048;-68
2021/12/02 05:59:25;;;;;;;21.20;2.47;;;;;;;;;;4832992;29;20053;-64
2021/12/02 06:01:52;;;;;;;3.17;1.40;;;;;;;;;;4835090;29;20054;-68
2021/12/02 06:04:18;;;;;;;1.92;1.42;;;;;;;;;;4834927;29;20065;-64
2021/12/02 06:06:44;;;;;;;7.07;1.75;;;;;;;;;;4824594;29;20058;-66
2021/12/02 06:09:10;;;;;;;3.20;1.45;;;;;;;;;;4821825;29;20409;-65
2021/12/02 06:11:36;;;;;;;3.22;1.50;;;;;;;;;;4840078;29;20457;-66
2021/12/02 06:14:03;;;;;;;6.88;1.60;;;;;;;;;;4840575;29;20484;-66
2021/12/02 06:16:29;;;;;;;3.60;1.33;;;;;;;;;;4838826;29;20058;-65
2021/12/02 06:18:56;;;;;;;9.30;1.58;;;;;;;;;;4838181;29;20060;-65
2021/12/02 06:21:22;;;;;;;6.07;1.58;;;;;;;;;;4840954;29;20064;-67
2021/12/02 06:23:48;;;;;;;3.28;1.38;;;;;;;;;;4838378;29;20046;-69
2021/12/02 06:26:14;;;;;;;6.80;2.03;;;;;;;;;;4840564;29;20086;-67
2021/12/02 06:28:40;;;;;;;2.20;1.15;;;;;;;;;;4837061;29;20081;-67
2021/12/02 06:31:07;;;;;;;10.52;1.80;;;;;;;;;;4835925;29;20087;-65
2021/12/02 06:33:34;;;;;;;5.40;1.95;;;;;;;;;;4832470;29;20072;-67
2021/12/02 06:36:00;;;;;;;4.93;1.70;;;;;;;;;;4833097;29;20065;-66
2021/12/02 06:38:26;;;;;;;4.70;1.80;;;;;;;;;;4813568;29;20050;-66
2021/12/02 06:40:53;;;;;;;11.32;2.28;;;;;;;;;;4813543;29;20705;-66
2021/12/02 06:43:19;;;;;;;6.00;2.05;;;;;;;;;;4821311;29;20343;-65
2021/12/02 06:45:45;;;;;;;4.65;2.17;;;;;;;;;;4831346;29;20070;-67
2021/12/02 06:48:12;;;;;;;5.63;2.28;;;;;;;;;;4830795;29;20417;-65
2021/12/02 06:50:38;;;;;;;4.72;2.10;;;;;;;;;;4833243;29;20050;-65
2021/12/02 06:53:06;;;;;;;15.48;2.58;;;;;;;;;;4832783;29;20394;-67
2021/12/02 06:55:33;;;;;;;5.32;2.10;;;;;;;;;;4848388;29;20572;-70
2021/12/02 06:57:59;;;;;;;10.30;2.17;;;;;;;;;;4831440;29;20843;-69
2021/12/02 07:00:27;;;;;;;5.93;2.00;;;;;;;;;;4831939;29;20050;-66
2021/12/02 07:02:53;;;;;;;12.60;2.33;;;;;;;;;;4818419;29;20140;-71
2021/12/02 07:05:19;;;;;;;13.15;2.22;;;;;;;;;;4815843;29;20053;-69
2021/12/02 07:07:46;;;;;;;7.53;2.38;;;;;;;;;;4832564;29;20053;-66
2021/12/02 07:10:23;;;;;;;5.05;2.03;;;;;;;;;;4829818;29;20587;-65
2021/12/02 07:12:52;;;;;;;4.07;2.15;;;;;;;;;;4845589;29;20144;-66
2021/12/02 07:15:26;;;;;;;6.80;2.58;;;;;;;;;;4832589;29;20057;-66
2021/12/02 07:17:59;;;;;;;5.70;2.38;;;;;;;;;;4830367;29;20054;-68
2021/12/02 07:20:34;;;;;;;5.50;2.15;;;;;;;;;;4832397;29;20081;-74
2021/12/02 07:23:02;;;;;;;9.70;2.88;;;;;;;;;;4846115;29;20445;-75
2021/12/02 07:25:28;;;;;;;28.88;5.35;;;;;;;;;;4816487;29;20058;-69
2021/12/02 07:27:54;;;;;;;12.00;2.90;;;;;;;;;;4830105;29;20050;-65
2021/12/02 07:30:21;;;;;;;10.73;3.08;;;;;;;;;;4831625;29;20060;-65
2021/12/02 07:32:52;;;;;;;18.75;3.40;;;;;;;;;;4830436;29;20836;-70
2021/12/02 07:35:18;;;;;;;13.77;2.90;;;;;;;;;;4829243;29;20057;-66
2021/12/02 07:37:47;;;;;;;7.57;2.95;;;;;;;;;;4832824;29;20172;-71
2021/12/02 07:40:16;;;;;;;13.82;3.20;;;;;;;;;;4831640;29;20477;-72
2021/12/02 07:42:45;;;;;;;14.65;3.42;;;;;;;;;;4830219;29;20046;-69
2021/12/02 07:45:11;;;;;;;22.02;3.63;;;;;;;;;;4830336;29;20049;-65
2021/12/02 07:47:40;;;;;;;9.52;3.83;;;;;;;;;;4832413;29;20461;-70
2021/12/02 07:50:09;;;;;;;19.25;3.83;;;;;;;;;;4832214;29;20506;-67
2021/12/02 07:52:40;;;;;;;16.00;4.20;;;;;;;;;;4828138;29;20460;-67
2021/12/02 07:55:09;;;;;;;22.35;4.35;;;;;;;;;;4830956;29;20463;-69
2021/12/02 07:57:37;;;;;;;19.48;3.95;;;;;;;;;;4826255;29;20053;-68
2021/12/02 08:00:04;;;;;;;22.10;3.83;;;;;;;;;;4826171;29;20447;-70
2021/12/02 08:02:33;;;;;;;16.27;3.70;;;;;;;;;;4823202;29;20136;-71
2021/12/02 08:05:00;;;;;;;15.38;3.90;;;;;;;;;;4827432;29;20460;-69
2021/12/02 08:07:26;;;;;;;19.17;4.55;;;;;;;;;;4831086;29;20062;-72
2021/12/02 08:09:52;;;;;;;19.10;3.63;;;;;;;;;;4831057;29;20054;-72
2021/12/02 08:12:18;;;;;;;16.70;4.43;;;;;;;;;;4825872;29;20205;-75
2021/12/02 08:14:44;;;;;;;17.75;3.70;;;;;;;;;;4827026;29;20799;-69
2021/12/02 08:17:11;;;;;;;13.05;4.18;;;;;;;;;;4826022;29;20054;-72
2021/12/02 08:19:36;;;;;;;11.20;3.50;;;;;;;;;;4800224;29;20069;-72
2021/12/02 08:22:03;;;;;;;15.05;3.75;;;;;;;;;;4813022;29;20084;-71
2021/12/02 08:24:29;;;;;;;12.68;3.67;;;;;;;;;;4820510;29;20065;-68
2021/12/02 08:26:56;;;;;;;11.25;3.55;;;;;;;;;;4817551;29;20124;-69
2021/12/02 08:29:22;;;;;;;7.13;2.40;;;;;;;;;;4817797;29;20193;-66
2021/12/02 08:31:49;;;;;;;9.90;2.95;;;;;;;;;;4815542;29;20181;-69
2021/12/02 08:34:17;;;;;;;10.57;3.03;;;;;;;;;;4811406;29;20073;-73
2021/12/02 08:36:50;;;;;;;8.13;2.42;;;;;;;;;;4823247;29;20049;-70
2021/12/02 08:39:18;;;;;;;6.07;2.63;;;;;;;;;;4806625;29;20654;-66
2021/12/02 08:41:48;;;;;;;12.25;3.22;;;;;;;;;;4818745;29;20118;-73
2021/12/02 08:44:16;;;;;;;13.98;2.83;;;;;;;;;;4819920;29;20077;-69
2021/12/02 08:46:42;;;;;;;9.15;2.80;;;;;;;;;;4824413;29;20049;-70
2021/12/02 08:49:10;;;;;;;7.13;2.40;;;;;;;;;;4824697;29;20073;-72
2021/12/02 08:51:36;;;;;;;9.77;2.33;;;;;;;;;;4819331;29;20058;-69
2021/12/02 08:54:04;;;;;;;10.82;2.35;;;;;;;;;;4834196;29;20152;-69
2021/12/02 08:56:30;;;;;;;23.05;2.50;;;;;;;;;;4820130;29;20629;-67
2021/12/02 08:58:55;;;;;;;11.23;2.65;;;;;;;;;;4802044;29;20069;-76
2021/12/02 09:01:22;;;;;;;5.13;2.20;;;;;;;;;;4817238;29;20084;-72
2021/12/02 09:03:48;;;;;;;5.82;1.73;;;;;;;;;;4817395;29;20540;-69
2021/12/02 09:06:14;;;;;;;3.53;1.50;;;;;;;;;;4819042;29;20569;-72
2021/12/02 09:08:41;;;;;;;6.85;1.80;;;;;;;;;;4820165;29;20061;-73
2021/12/02 09:11:10;;;;;;;6.65;1.55;;;;;;;;;;4822031;29;20149;-74
2021/12/02 09:13:36;;;;;;;10.43;1.83;;;;;;;;;;4817542;29;20084;-73
2021/12/02 09:16:03;;;;;;;3.25;1.60;;;;;;;;;;4825940;29;20152;-72
2021/12/02 09:18:29;;;;;;;5.40;2.35;;;;;;;;;;4824865;29;20176;-75
2021/12/02 09:20:57;;;;;;;3.15;1.45;;;;;;;;;;4825863;29;20870;-71
2021/12/02 09:23:23;;;;;;;2.38;1.10;;;;;;;;;;4817367;29;20064;-70
2021/12/02 09:25:50;;;;;;;4.03;1.02;;;;;;;;;;4822788;29;20164;-72
2021/12/02 09:28:17;;;;;;;5.47;1.40;;;;;;;;;;4823005;29;20058;-72
2021/12/02 09:30:45;;;;;;;4.65;1.42;;;;;;;;;;4820406;29;20076;-75
2021/12/02 09:33:11;;;;;;;8.63;1.50;;;;;;;;;;4817312;29;20581;-73
2021/12/02 09:35:38;;;;;;;3.45;1.20;;;;;;;;;;4822224;29;20078;-75
2021/12/02 09:38:08;;;;;;;4.45;1.30;;;;;;;;;;4820902;29;20068;-71
2021/12/02 09:40:36;;;;;;;3.42;1.33;;;;;;;;;;4815221;29;20105;-74
2021/12/02 09:43:03;;;;;;;3.28;1.48;;;;;;;;;;4820243;29;20102;-75
2021/12/02 09:45:29;;;;;;;2.00;1.27;;;;;;;;;;4823767;29;20998;-76
2021/12/02 09:47:55;;;;;;;2.08;0.90;;;;;;;;;;4826648;29;20899;-70
2021/12/02 09:50:29;;;;;;;5.10;0.98;;;;;;;;;;4822999;29;20056;-73
2021/12/02 09:53:05;;;;;;;4.07;1.08;;;;;;;;;;4824081;29;20121;-73
2021/12/02 09:55:43;;;;;;;2.00;0.90;;;;;;;;;;4819362;29;20061;-72
2021/12/02 09:58:18;;;;;;;2.47;0.60;;;;;;;;;;4815100;29;20054;-70
2021/12/02 10:01:07;;;;;;;;;;;;;;;;;;4803574;29;20072;-73
2021/12/02 10:03:37;;;;;;;0.77;0.60;;;;;;;;;;4813689;29;20703;-72
2021/12/02 10:06:18;;;;;;;1.17;0.60;;;;;;;;;;4822799;29;20793;-74
2021/12/02 10:08:57;;;;;;;4.60;0.70;;;;;;;;;;4818146;29;20057;-70
2021/12/02 10:11:27;;;;;;;4.43;0.85;;;;;;;;;;4819077;29;20061;-73
2021/12/02 10:14:00;;;;;;;3.20;0.60;;;;;;;;;;4821253;29;21593;-70
2021/12/02 10:19:02;;;;;;;2.28;0.50;;;;;;;;;;4819773;29;20617;-72
2021/12/02 10:21:38;;;;;;;2.33;0.77;;;;;;;;;;4821474;29;20140;-74
2021/12/02 10:24:16;;;;;;;1.27;0.65;;;;;;;;;;4815066;29;20069;-75
2021/12/02 10:26:55;;;;;;;2.45;0.75;;;;;;;;;;4821520;29;20069;-73
2021/12/02 10:29:27;;;;;;;2.35;0.70;;;;;;;;;;4824649;29;20064;-72
2021/12/02 10:32:18;;;;;;;0.93;0.52;;;;;;;;;;4818166;29;21703;-68
2021/12/02 10:35:00;;;;;;;4.57;0.50;;;;;;;;;;4826409;29;20617;-72
2021/12/02 10:37:30;;;;;;;2.88;0.80;;;;;;;;;;4827140;29;20200;-72
2021/12/02 10:40:00;;;;;;;2.72;0.80;;;;;;;;;;4827173;29;20126;-68
2021/12/02 10:42:27;;;;;;;0.80;0.50;;;;;;;;;;4834670;29;20105;-73
2021/12/02 10:44:54;;;;;;;2.63;0.73;;;;;;;;;;4822004;29;20054;-72
2021/12/02 10:47:22;;;;;;;2.03;0.50;;;;;;;;;;4820099;29;20054;-75
2021/12/02 10:49:54;;;;;;;1.88;0.50;;;;;;;;;;4820140;29;20740;-72
2021/12/02 10:52:24;;;;;;;1.80;0.47;;;;;;;;;;4814472;29;20053;-73
2021/12/02 10:54:57;;;;;;;3.97;0.60;;;;;;;;;;4816292;29;20053;-74
2021/12/02 10:57:25;;;;;;;1.85;0.68;;;;;;;;;;4818771;29;20072;-75
2021/12/02 10:59:53;;;;;;;6.55;0.60;;;;;;;;;;4819631;29;20599;-74
2021/12/02 11:02:30;;;;;;;0.55;0.55;;;;;;;;;;4817195;29;20056;-72
2021/12/02 11:05:18;;;;;;;2.85;0.60;;;;;;;;;;4816702;29;20060;-74
2021/12/02 11:07:52;;;;;;;3.25;0.70;;;;;;;;;;4803354;29;20094;-73
2021/12/02 11:10:19;;;;;;;1.35;0.70;;;;;;;;;;4820116;29;20077;-74
2021/12/02 11:12:48;;;;;;;1.45;0.75;;;;;;;;;;4796539;29;20821;-74
2021/12/02 11:15:25;;;;;;;1.30;0.65;;;;;;;;;;4814316;29;20046;-75
2021/12/02 11:17:59;;;;;;;3.78;0.90;;;;;;;;;;4814984;29;20061;-73
2021/12/02 11:20:27;;;;;;;;;;;;;;;;;;4815878;29;20092;-70
2021/12/02 11:22:59;;;;;;;4.53;0.60;;;;;;;;;;4810650;29;19932;-75
2021/12/02 11:25:25;;;;;;;0.80;0.40;;;;;;;;;;4816225;29;20077;-71
2021/12/02 11:27:52;;;;;;;2.42;0.63;;;;;;;;;;4813172;29;20133;-75
2021/12/02 11:30:27;;;;;;;1.85;1.20;;;;;;;;;;4813948;29;20069;-75
2021/12/02 11:32:59;;;;;;;2.70;0.77;;;;;;;;;;4813778;29;20077;-73
2021/12/02 11:35:29;;;;;;;0.77;0.70;;;;;;;;;;4814187;29;20062;-74
2021/12/02 11:38:01;;;;;;;0.82;0.50;;;;;;;;;;4817007;29;20050;-73
2021/12/02 11:40:37;;;;;;;0.85;0.60;;;;;;;;;;4803386;29;20164;-71
2021/12/02 11:43:04;;;;;;;0.75;0.65;;;;;;;;;;4818447;29;20060;-72
2021/12/02 11:45:36;;;;;;;1.10;0.70;;;;;;;;;;4817434;29;20104;-72
2021/12/02 11:48:02;;;;;;;3.50;0.95;;;;;;;;;;4817154;29;20054;-72
2021/12/02 11:50:29;;;;;;;2.33;0.60;;;;;;;;;;4818035;29;20058;-72
2021/12/02 11:52:56;;;;;;;6.93;0.63;;;;;;;;;;4811775;29;20066;-76
2021/12/02 11:55:32;;;;;;;0.95;0.70;;;;;;;;;;4818551;29;20058;-71
2021/12/02 11:58:00;;;;;;;9.38;2.03;;;;;;;;;;4816989;29;21250;-72
2021/12/02 12:00:28;;;;;;;10.27;1.23;;;;;;;;;;4814804;29;20065;-74
2021/12/02 12:03:02;;;;;;;6.88;1.10;;;;;;;;;;4812425;29;20076;-76
2021/12/02 12:05:33;;;;;;;4.60;1.15;;;;;;;;;;4820065;29;20289;-72
2021/12/02 12:08:00;;;;;;;6.20;1.02;;;;;;;;;;4820713;29;20145;-76
2021/12/02 12:10:38;;;;;;;7.22;1.58;;;;;;;;;;4822388;29;20050;-71
2021/12/02 12:13:20;;;;;;;2.00;0.73;;;;;;;;;;4836215;29;20573;-74
2021/12/02 12:15:58;;;;;;;2.67;0.93;;;;;;;;;;4825046;29;20061;-71
2021/12/02 12:18:36;;;;;;;3.50;1.10;;;;;;;;;;4836519;29;20142;-73
2021/12/02 12:21:12;;;;;;;8.60;1.10;;;;;;;;;;4842126;29;21046;-73
2021/12/02 12:23:58;;;;;;;11.48;1.27;;;;;;;;;;4832779;29;20056;-76
2021/12/02 12:26:32;;;;;;;3.10;0.88;;;;;;;;;;4837924;29;20057;-72
2021/12/02 12:29:07;;;;;;;4.53;0.93;;;;;;;;;;4838965;29;20173;-77
2021/12/02 12:32:06;;;;;;;4.93;0.90;;;;;;;;;;4839897;29;20523;-77
2021/12/02 12:34:43;;;;;;;5.38;1.05;;;;;;;;;;4841681;29;20074;-76
2021/12/02 12:37:27;;;;;;;2.47;0.70;;;;;;;;;;4843231;29;20069;-73
2021/12/02 12:40:15;;;;;;;1.55;0.73;;;;;;;;;;4850650;29;20121;-71
2021/12/02 12:43:06;;;;;;;4.70;1.00;;;;;;;;;;4841548;29;20069;-72
2021/12/02 12:45:40;;;;;;;1.65;0.77;;;;;;;;;;4842272;29;20150;-78
2021/12/02 12:48:10;;;;;;;1.47;0.90;;;;;;;;;;4837142;29;20065;-76
2021/12/02 12:50:43;;;;;;;2.35;0.70;;;;;;;;;;4838066;29;20058;-70
2021/12/02 12:53:18;;;;;;;3.92;0.60;;;;;;;;;;4828290;29;20166;-72
2021/12/02 12:55:53;;;;;;;1.67;0.70;;;;;;;;;;4839028;29;20070;-74
2021/12/02 12:58:22;;;;;;;1.83;0.80;;;;;;;;;;4842438;29;20057;-74
2021/12/02 13:01:03;;;;;;;4.75;0.90;;;;;;;;;;4845415;29;20083;-78
2021/12/02 13:03:45;;;;;;;1.70;0.60;;;;;;;;;;4835831;29;20246;-76
2021/12/02 13:06:21;;;;;;;2.35;0.73;;;;;;;;;;4820815;29;20064;-75
2021/12/02 13:08:55;;;;;;;3.53;1.13;;;;;;;;;;4839763;29;20413;-73
2021/12/02 13:11:30;;;;;;;1.00;0.80;;;;;;;;;;4839874;29;20058;-73
2021/12/02 13:14:00;;;;;;;2.22;0.88;;;;;;;;;;4847437;29;20045;-74
2021/12/02 13:16:25;;;;;;;2.65;0.70;;;;;;;;;;4837849;29;20062;-72
2021/12/02 13:19:01;;;;;;;1.77;0.70;;;;;;;;;;4839811;29;20058;-71
2021/12/02 13:21:30;;;;;;;1.20;0.85;;;;;;;;;;4835804;29;20064;-75
2021/12/02 13:24:19;;;;;;;3.17;1.25;;;;;;;;;;4835354;29;20061;-75
2021/12/02 13:26:55;;;;;;;1.92;1.30;;;;;;;;;;4835390;29;20552;-74
2021/12/02 13:29:26;;;;;;;2.28;0.82;;;;;;;;;;4837321;29;20510;-72
2021/12/02 13:31:55;;;;;;;2.42;0.90;;;;;;;;;;4830900;29;20165;-72
2021/12/02 13:34:24;;;;;;;2.00;0.95;;;;;;;;;;4835917;29;20069;-73
2021/12/02 13:37:05;;;;;;;1.98;0.80;;;;;;;;;;4840803;29;20046;-74
2021/12/02 13:39:33;;;;;;;2.10;0.80;;;;;;;;;;4840755;29;20081;-74
2021/12/02 13:42:03;;;;;;;1.48;0.98;;;;;;;;;;4842839;29;20058;-74
2021/12/02 13:44:53;;;;;;;2.90;0.82;;;;;;;;;;4845048;29;21299;-75
2021/12/02 13:47:41;;;;;;;2.13;0.85;;;;;;;;;;4843917;29;20054;-73
2021/12/02 13:50:12;;;;;;;1.50;0.80;;;;;;;;;;4826340;29;20057;-75
2021/12/02 13:52:53;;;;;;;1.17;0.82;;;;;;;;;;4835300;29;20132;-79
2021/12/02 13:55:24;;;;;;;1.83;0.88;;;;;;;;;;4837724;29;20057;-73
2021/12/02 13:57:54;;;;;;;0.88;0.60;;;;;;;;;;4836008;29;20114;-79
2021/12/02 14:00:24;;;;;;;5.47;1.30;;;;;;;;;;4829124;29;21391;-80
2021/12/02 14:02:54;;;;;;;3.67;0.90;;;;;;;;;;4826166;29;20061;-75
2021/12/02 14:05:25;;;;;;;1.60;0.88;;;;;;;;;;4825346;29;20085;-78
2021/12/02 14:07:54;;;;;;;0.82;0.60;;;;;;;;;;4831429;29;20065;-75
2021/12/02 14:10:24;;;;;;;6.20;1.02;;;;;;;;;;4838786;29;20501;-75
2021/12/02 14:13:04;;;;;;;1.85;0.88;;;;;;;;;;4828455;29;20061;-78
2021/12/02 14:15:35;;;;;;;2.58;0.77;;;;;;;;;;4826591;29;20050;-77
2021/12/02 14:18:10;;;;;;;1.52;0.80;;;;;;;;;;4841423;29;20102;-75
2021/12/02 14:20:40;;;;;;;1.17;0.50;;;;;;;;;;4841414;29;20136;-78
2021/12/02 14:23:17;;;;;;;2.47;1.38;;;;;;;;;;4835552;29;20081;-75
2021/12/02 14:25:48;;;;;;;3.88;1.10;;;;;;;;;;4824084;29;20054;-76
2021/12/02 14:28:14;;;;;;;3.65;1.55;;;;;;;;;;4834058;29;20129;-75
2021/12/02 14:30:52;;;;;;;3.85;1.00;;;;;;;;;;4830468;29;20089;-80
2021/12/02 14:33:40;;;;;;;3.15;0.80;;;;;;;;;;4820158;29;20078;-76
2021/12/02 14:36:16;;;;;;;1.85;0.88;;;;;;;;;;4819200;29;20062;-74
2021/12/02 14:38:44;;;;;;;2.53;0.68;;;;;;;;;;4820138;29;20046;-75
2021/12/02 14:41:19;;;;;;;1.85;0.70;;;;;;;;;;4827316;29;20064;-79
2021/12/02 14:43:55;;;;;;;1.05;0.50;;;;;;;;;;4819016;29;20054;-72
2021/12/02 14:46:36;;;;;;;2.22;0.75;;;;;;;;;;4822754;29;20053;-73
2021/12/02 14:49:19;;;;;;;2.80;0.80;;;;;;;;;;4813233;29;20144;-76
2021/12/02 14:51:47;;;;;;;1.98;0.55;;;;;;;;;;4808090;29;20073;-75
2021/12/02 14:54:25;;;;;;;3.35;0.90;;;;;;;;;;4828084;29;20061;-72
2021/12/02 14:56:51;;;;;;;1.50;0.73;;;;;;;;;;4831534;29;20069;-73
2021/12/02 14:59:29;;;;;;;1.88;0.60;;;;;;;;;;4822963;29;20093;-74
2021/12/02 15:02:03;;;;;;;9.77;2.70;;;;;;;;;;4821659;29;20145;-75
2021/12/02 15:04:51;;;;;;;1.65;0.55;;;;;;;;;;4831251;29;20078;-74
2021/12/02 15:07:25;;;;;;;3.53;0.63;;;;;;;;;;4827498;29;20049;-74
2021/12/02 15:09:58;;;;;;;3.38;1.05;;;;;;;;;;4822277;29;20125;-72
2021/12/02 15:12:31;;;;;;;4.20;0.57;;;;;;;;;;4816411;29;20058;-71
2021/12/02 15:15:10;;;;;;;1.35;0.60;;;;;;;;;;4820162;29;20064;-75
2021/12/02 15:17:51;;;;;;;3.30;0.52;;;;;;;;;;4818399;29;20046;-78
2021/12/02 15:20:22;;;;;;;3.90;0.68;;;;;;;;;;4817958;29;20112;-72
2021/12/02 15:22:54;;;;;;;3.40;0.70;;;;;;;;;;4802340;29;20175;-74
2021/12/02 15:25:35;;;;;;;2.22;0.60;;;;;;;;;;4816557;29;20058;-75
2021/12/02 15:28:22;;;;;;;0.93;0.63;;;;;;;;;;4821370;29;20121;-80
2021/12/02 15:30:56;;;;;;;2.53;1.30;;;;;;;;;;4820386;29;20090;-75
2021/12/02 15:33:30;;;;;;;1.95;1.05;;;;;;;;;;4818905;29;20140;-74